Time;durP1;ratioP1;P1;durP2;ratioP2;P2;SDS_P1;SDS_P2;PMS_P1;PMS_P2;Temp;Humidity;BMP_temperature;BMP_pressure;BME280_temperature;BME280_humidity;BME280_pressure;Samples;Min_cycle;Max_cycle;Signal;HPM_P1;HPM_P2
2021/05/06 17:17:23;;;;;;;1.88;1.25;;;;;;;;;;5149465;27;20834;-76
2021/05/06 17:19:49;;;;;;;4.97;2.28;;;;;;;;;;5149987;27;20039;-74
2021/05/06 17:22:15;;;;;;;4.88;2.38;;;;;;;;;;5151163;27;20476;-74
2021/05/06 17:24:41;;;;;;;4.47;1.92;;;;;;;;;;5131883;27;20030;-73
2021/05/06 17:27:07;;;;;;;4.60;2.05;;;;;;;;;;5148380;27;20027;-73
2021/05/06 17:29:33;;;;;;;3.92;1.67;;;;;;;;;;5149714;27;20083;-74
2021/05/06 17:31:59;;;;;;;2.55;1.60;;;;;;;;;;5150212;27;20023;-75
2021/05/06 17:34:25;;;;;;;3.25;1.70;;;;;;;;;;5150132;27;20037;-75
2021/05/06 17:36:51;;;;;;;1.80;1.30;;;;;;;;;;5149973;27;20391;-77
2021/05/06 17:39:17;;;;;;;3.50;1.90;;;;;;;;;;5149920;27;20471;-76
2021/05/06 17:41:43;;;;;;;3.45;1.42;;;;;;;;;;5148327;27;20027;-78
2021/05/06 17:44:09;;;;;;;2.67;1.10;;;;;;;;;;5148625;27;20027;-81
2021/05/06 17:46:35;;;;;;;2.47;1.30;;;;;;;;;;5124790;27;20043;-77
2021/05/06 17:49:01;;;;;;;1.13;0.95;;;;;;;;;;5129559;27;20039;-76
2021/05/06 17:51:27;;;;;;;2.03;0.82;;;;;;;;;;5128677;27;20035;-75
2021/05/06 17:53:54;;;;;;;0.93;0.70;;;;;;;;;;5128715;27;20098;-75
2021/05/06 17:56:20;;;;;;;2.03;0.82;;;;;;;;;;5129249;27;20057;-77
2021/05/06 17:58:52;;;;;;;1.55;0.65;;;;;;;;;;5129128;27;20456;-76
2021/05/06 18:01:19;;;;;;;1.52;0.98;;;;;;;;;;5145590;27;20047;-76
2021/05/06 18:03:45;;;;;;;2.38;0.77;;;;;;;;;;5149864;27;20023;-75
2021/05/06 18:06:12;;;;;;;3.88;0.80;;;;;;;;;;5148151;27;20054;-75
2021/05/06 18:08:59;;;;;;;2.50;0.77;;;;;;;;;;5150317;27;20110;-74
2021/05/06 18:13:51;;;;;;;1.70;0.90;;;;;;;;;;5145115;27;20118;-74
2021/05/06 18:16:17;;;;;;;2.53;0.88;;;;;;;;;;5148722;27;20084;-74
2021/05/06 18:18:43;;;;;;;1.75;0.88;;;;;;;;;;5148759;27;20456;-74
2021/05/06 18:21:09;;;;;;;1.30;0.93;;;;;;;;;;5148270;27;20015;-74
2021/05/06 18:23:35;;;;;;;2.88;1.00;;;;;;;;;;5148665;27;20023;-75
2021/05/06 18:26:01;;;;;;;1.63;1.23;;;;;;;;;;5148844;27;20030;-75
2021/05/06 18:28:27;;;;;;;2.47;0.90;;;;;;;;;;5134508;27;20031;-75
2021/05/06 18:30:53;;;;;;;1.90;1.05;;;;;;;;;;5121280;27;20035;-74
2021/05/06 18:33:19;;;;;;;2.78;1.02;;;;;;;;;;5114278;28;20031;-74
2021/05/06 18:35:45;;;;;;;3.83;1.10;;;;;;;;;;5093586;28;20032;-73
2021/05/06 18:38:12;;;;;;;1.90;0.70;;;;;;;;;;5125005;27;20437;-74
2021/05/06 18:40:38;;;;;;;2.85;0.77;;;;;;;;;;5112210;28;20503;-74
2021/05/06 18:43:04;;;;;;;1.00;0.52;;;;;;;;;;5113779;28;20480;-74
2021/05/06 18:45:32;;;;;;;2.47;0.63;;;;;;;;;;5112395;28;20525;-74
2021/05/06 18:47:58;;;;;;;2.58;0.75;;;;;;;;;;5113439;28;20102;-74
2021/05/06 18:50:24;;;;;;;2.08;0.65;;;;;;;;;;5113014;28;20030;-73
2021/05/06 18:52:50;;;;;;;2.08;0.60;;;;;;;;;;5113519;28;20028;-74
2021/05/06 18:55:17;;;;;;;1.55;0.70;;;;;;;;;;5113285;28;20026;-74
2021/05/06 18:57:43;;;;;;;3.90;0.73;;;;;;;;;;5113567;28;20023;-74
2021/05/06 19:00:09;;;;;;;1.75;0.70;;;;;;;;;;5112944;28;20024;-74
2021/05/06 19:02:35;;;;;;;1.50;0.45;;;;;;;;;;5112262;28;20028;-75
2021/05/06 19:05:04;;;;;;;0.98;0.60;;;;;;;;;;5126292;27;20039;-74
2021/05/06 19:07:32;;;;;;;1.45;0.50;;;;;;;;;;5116014;27;20035;-74
2021/05/06 19:09:58;;;;;;;2.40;0.70;;;;;;;;;;5133313;27;20016;-73
2021/05/06 19:12:24;;;;;;;2.72;0.52;;;;;;;;;;5114100;27;20438;-76
2021/05/06 19:14:50;;;;;;;2.13;0.80;;;;;;;;;;5113402;28;20019;-75
2021/05/06 19:17:16;;;;;;;0.95;0.52;;;;;;;;;;5113179;28;20111;-75
2021/05/06 19:19:42;;;;;;;1.85;0.70;;;;;;;;;;5112813;28;20035;-75
2021/05/06 19:22:08;;;;;;;3.22;0.77;;;;;;;;;;5113091;27;20027;-75
2021/05/06 19:24:34;;;;;;;2.13;1.00;;;;;;;;;;5112982;28;20050;-75
2021/05/06 19:27:01;;;;;;;1.73;0.70;;;;;;;;;;5113351;27;20104;-75
2021/05/06 19:29:27;;;;;;;2.15;0.73;;;;;;;;;;5112274;28;20031;-76
2021/05/06 19:31:55;;;;;;;2.28;0.85;;;;;;;;;;5093499;27;20516;-75
2021/05/06 19:34:21;;;;;;;3.08;0.80;;;;;;;;;;5111666;27;20483;-75
2021/05/06 19:36:48;;;;;;;1.00;0.60;;;;;;;;;;5134642;27;20037;-74
2021/05/06 19:39:14;;;;;;;2.00;0.75;;;;;;;;;;5132887;27;20735;-75
2021/05/06 19:41:40;;;;;;;1.80;0.60;;;;;;;;;;5134140;27;20027;-73
2021/05/06 19:44:09;;;;;;;1.63;0.80;;;;;;;;;;5132962;27;20031;-74
2021/05/06 19:46:45;;;;;;;3.03;1.10;;;;;;;;;;5133356;27;20052;-76
2021/05/06 19:49:11;;;;;;;1.00;0.80;;;;;;;;;;5134794;27;20015;-74
2021/05/06 19:51:37;;;;;;;2.72;0.80;;;;;;;;;;5131124;27;20027;-73
2021/05/06 19:54:04;;;;;;;2.25;1.10;;;;;;;;;;5110865;28;20027;-74
2021/05/06 19:56:30;;;;;;;2.15;0.80;;;;;;;;;;5112676;28;20020;-73
2021/05/06 19:58:56;;;;;;;3.83;1.00;;;;;;;;;;5110954;28;20118;-74
2021/05/06 20:01:22;;;;;;;2.33;1.20;;;;;;;;;;5110055;27;20036;-73
2021/05/06 20:03:49;;;;;;;5.00;1.25;;;;;;;;;;5117215;27;20501;-73
2021/05/06 20:06:15;;;;;;;1.50;1.10;;;;;;;;;;5131557;27;20039;-75
2021/05/06 20:08:41;;;;;;;1.92;1.02;;;;;;;;;;5132813;27;20050;-76
2021/05/06 20:11:07;;;;;;;2.88;1.30;;;;;;;;;;5114091;27;20075;-75
2021/05/06 20:13:34;;;;;;;1.67;1.00;;;;;;;;;;5113534;27;20035;-74
2021/05/06 20:16:01;;;;;;;4.70;1.00;;;;;;;;;;5125118;27;20406;-74
2021/05/06 20:18:27;;;;;;;3.40;1.40;;;;;;;;;;5132745;27;20043;-74
2021/05/06 20:23:40;;;;;;;3.03;1.52;;;;;;;;;;5110745;27;20438;-74
2021/05/06 20:26:07;;;;;;;3.38;1.20;;;;;;;;;;5131066;27;20201;-74
2021/05/06 20:28:33;;;;;;;2.17;1.33;;;;;;;;;;5126238;27;20081;-75
2021/05/06 20:30:59;;;;;;;3.38;1.65;;;;;;;;;;5114233;27;20023;-74
2021/05/06 20:33:25;;;;;;;3.92;1.27;;;;;;;;;;5112589;27;20062;-75
2021/05/06 20:35:51;;;;;;;3.90;1.50;;;;;;;;;;5132406;27;20023;-74
2021/05/06 20:38:17;;;;;;;3.08;1.27;;;;;;;;;;5132014;27;20023;-74
2021/05/06 20:40:47;;;;;;;5.20;1.30;;;;;;;;;;5130359;27;20030;-74
2021/05/06 20:43:17;;;;;;;2.70;1.30;;;;;;;;;;5127604;27;20014;-75
2021/05/06 20:45:44;;;;;;;2.25;1.20;;;;;;;;;;5130069;27;20030;-74
2021/05/06 20:48:20;;;;;;;2.78;1.40;;;;;;;;;;5124071;27;20092;-74
2021/05/06 20:50:46;;;;;;;3.10;1.63;;;;;;;;;;5098742;28;20027;-74
2021/05/06 20:53:12;;;;;;;2.17;1.30;;;;;;;;;;5100989;28;20032;-74
2021/05/06 20:55:38;;;;;;;1.52;1.30;;;;;;;;;;5103009;27;20024;-74
2021/05/06 20:58:04;;;;;;;2.25;1.40;;;;;;;;;;5096836;28;20059;-74
2021/05/06 21:00:30;;;;;;;2.35;1.27;;;;;;;;;;5099925;28;20024;-74
2021/05/06 21:02:56;;;;;;;1.85;1.40;;;;;;;;;;5100387;28;20073;-74
2021/05/06 21:05:24;;;;;;;2.75;1.30;;;;;;;;;;5102432;28;20389;-74
2021/05/06 21:07:52;;;;;;;2.03;1.00;;;;;;;;;;5102653;28;20012;-74
2021/05/06 21:10:19;;;;;;;3.38;1.30;;;;;;;;;;5104647;28;20058;-77
2021/05/06 21:12:45;;;;;;;5.78;1.20;;;;;;;;;;5092554;28;20719;-76
2021/05/06 21:15:11;;;;;;;1.13;0.80;;;;;;;;;;5099629;28;20263;-77
2021/05/06 21:17:37;;;;;;;1.55;0.93;;;;;;;;;;5108142;28;20025;-76
2021/05/06 21:20:04;;;;;;;1.75;1.10;;;;;;;;;;5106285;28;20032;-76
2021/05/06 21:22:30;;;;;;;1.98;1.00;;;;;;;;;;5109974;28;20024;-75
2021/05/06 21:24:56;;;;;;;1.90;0.93;;;;;;;;;;5124491;28;20376;-77
2021/05/06 21:27:22;;;;;;;1.40;0.90;;;;;;;;;;5115073;28;20451;-77
2021/05/06 21:29:48;;;;;;;1.52;0.90;;;;;;;;;;5131741;28;20119;-77
2021/05/06 21:32:15;;;;;;;1.55;1.10;;;;;;;;;;5132056;27;20055;-77
2021/05/06 21:34:41;;;;;;;2.58;0.90;;;;;;;;;;5131880;27;20080;-77
2021/05/06 21:37:08;;;;;;;2.80;1.00;;;;;;;;;;5114606;28;20596;-76
2021/05/06 21:39:35;;;;;;;2.65;0.70;;;;;;;;;;5131763;28;20027;-79
2021/05/06 21:42:02;;;;;;;1.23;0.52;;;;;;;;;;5132518;28;20020;-77
2021/05/06 21:44:28;;;;;;;0.98;0.75;;;;;;;;;;5134311;28;20019;-76
2021/05/06 21:47:07;;;;;;;1.23;0.90;;;;;;;;;;5133565;28;20031;-76
2021/05/06 21:49:34;;;;;;;3.28;0.90;;;;;;;;;;5133378;28;20075;-78
2021/05/06 21:52:00;;;;;;;0.98;0.80;;;;;;;;;;5134664;28;20034;-77
2021/05/06 21:54:26;;;;;;;0.65;0.55;;;;;;;;;;5133829;27;20027;-76
2021/05/06 21:56:52;;;;;;;0.98;0.55;;;;;;;;;;5132552;27;20118;-77
2021/05/06 21:59:18;;;;;;;0.60;0.40;;;;;;;;;;5133244;27;20098;-77
2021/05/06 22:01:44;;;;;;;0.47;0.40;;;;;;;;;;5133174;27;20030;-77
2021/05/06 22:04:10;;;;;;;1.67;0.50;;;;;;;;;;5136912;27;20031;-78
2021/05/06 22:06:36;;;;;;;0.52;0.30;;;;;;;;;;5137635;27;20027;-77
2021/05/06 22:09:04;;;;;;;0.90;0.60;;;;;;;;;;5136698;27;20117;-76
2021/05/06 22:11:30;;;;;;;1.48;0.50;;;;;;;;;;5135683;27;20114;-77
2021/05/06 22:13:56;;;;;;;0.60;0.50;;;;;;;;;;5138044;27;20058;-79
2021/05/06 22:16:22;;;;;;;0.70;0.30;;;;;;;;;;5136250;27;20493;-77
2021/05/06 22:18:48;;;;;;;0.52;0.30;;;;;;;;;;5136722;27;20110;-77
2021/05/06 22:21:15;;;;;;;0.20;0.20;;;;;;;;;;5135459;27;20058;-78
2021/05/06 22:23:41;;;;;;;2.33;0.60;;;;;;;;;;5116930;27;20059;-77
2021/05/06 22:26:08;;;;;;;0.77;0.30;;;;;;;;;;5116570;28;20027;-77
2021/05/06 22:28:34;;;;;;;1.00;0.10;;;;;;;;;;5114995;28;20023;-77
2021/05/06 22:31:00;;;;;;;2.22;0.30;;;;;;;;;;5103231;28;20028;-77
2021/05/06 22:33:26;;;;;;;0.30;0.30;;;;;;;;;;5116387;27;20027;-77
2021/05/06 22:35:52;;;;;;;0.47;0.30;;;;;;;;;;5136491;27;20027;-76
2021/05/06 22:38:19;;;;;;;0.63;0.30;;;;;;;;;;5137090;27;20042;-77
2021/05/06 22:40:45;;;;;;;1.30;0.50;;;;;;;;;;5120021;27;20707;-77
2021/05/06 22:43:11;;;;;;;0.95;0.47;;;;;;;;;;5132943;27;20027;-77
2021/05/06 22:45:37;;;;;;;0.95;0.43;;;;;;;;;;5135402;27;20639;-77
2021/05/06 22:48:04;;;;;;;0.70;0.40;;;;;;;;;;5137253;27;20058;-77
2021/05/06 22:50:30;;;;;;;1.10;0.65;;;;;;;;;;5137251;27;20399;-77
2021/05/06 22:52:59;;;;;;;3.17;0.85;;;;;;;;;;5137408;27;20023;-77
2021/05/06 22:55:25;;;;;;;2.80;1.45;;;;;;;;;;5134450;27;20060;-76
2021/05/06 22:57:51;;;;;;;2.08;1.45;;;;;;;;;;5121994;27;20171;-77
2021/05/06 23:00:18;;;;;;;4.05;1.63;;;;;;;;;;5090013;28;20024;-77
2021/05/06 23:02:44;;;;;;;2.10;1.70;;;;;;;;;;5094203;28;20035;-76
2021/05/06 23:05:11;;;;;;;3.13;1.63;;;;;;;;;;5125717;27;20015;-77
2021/05/06 23:07:37;;;;;;;2.33;1.20;;;;;;;;;;5135559;27;20031;-77
2021/05/06 23:10:03;;;;;;;3.58;1.42;;;;;;;;;;5134891;27;20491;-77
2021/05/06 23:12:29;;;;;;;2.35;1.23;;;;;;;;;;5135565;27;20067;-77
